Time;durP1;ratioP1;P1;durP2;ratioP2;P2;SDS_P1;SDS_P2;PMS_P1;PMS_P2;Temp;Humidity;BMP_temperature;BMP_pressure;BME280_temperature;BME280_humidity;BME280_pressure;Samples;Min_cycle;Max_cycle;Signal;HPM_P1;HPM_P2
2022/06/22 00:01:26;;;;;;;16.77;13.25;;;;;;;23.57;70.71;99367.22;5087723;28;20039;-29
2022/06/22 00:03:54;;;;;;;16.20;13.13;;;;;;;23.62;70.17;99364.34;5068946;28;20024;-31
2022/06/22 00:06:31;;;;;;;16.33;13.00;;;;;;;23.50;70.08;99350.59;5087319;28;20059;-32
2022/06/22 00:08:57;;;;;;;15.50;13.27;;;;;;;23.51;70.50;99359.56;5087261;28;20052;-33
2022/06/22 00:11:25;;;;;;;18.48;12.95;;;;;;;23.57;70.06;99361.78;5068996;28;20403;-31
2022/06/22 00:13:57;;;;;;;14.88;12.35;;;;;;;23.55;70.37;99353.13;5087228;28;20032;-29
2022/06/22 00:16:29;;;;;;;16.17;12.45;;;;;;;23.70;70.17;99361.91;5089617;28;20077;-29
2022/06/22 00:18:56;;;;;;;17.33;12.82;;;;;;;23.47;70.73;99345.78;5091933;28;20069;-29
2022/06/22 00:21:36;;;;;;;16.00;13.70;;;;;;;23.74;70.29;99362.88;5072790;28;20047;-30
2022/06/22 00:24:21;;;;;;;14.48;12.32;;;;;;;23.74;69.54;99362.88;5072926;28;20060;-29
2022/06/22 00:26:52;;;;;;;14.45;12.45;;;;;;;23.58;70.20;99374.28;5073354;28;20035;-36
2022/06/22 00:29:22;;;;;;;15.98;12.20;;;;;;;23.54;70.59;99373.31;5089693;28;20028;-28
2022/06/22 00:31:50;;;;;;;16.38;13.05;;;;;;;23.74;70.12;99381.91;5072405;28;20513;-29
2022/06/22 00:34:26;;;;;;;15.80;12.65;;;;;;;23.49;70.22;99359.88;5090984;28;20036;-35
2022/06/22 00:37:03;;;;;;;17.27;12.32;;;;;;;23.75;69.93;99369.91;5091081;28;20067;-31
2022/06/22 00:39:29;;;;;;;15.77;11.88;;;;;;;23.63;69.52;99368.66;5072392;28;20093;-30
2022/06/22 00:42:14;;;;;;;15.85;13.07;;;;;;;23.62;69.51;99355.34;5090556;28;20028;-30
2022/06/22 00:45:02;;;;;;;15.65;11.80;;;;;;;23.43;70.06;99353.78;5072096;28;20097;-30
2022/06/22 00:47:35;;;;;;;17.20;12.52;;;;;;;23.48;70.28;99358.28;5090469;28;20503;-29
2022/06/22 00:50:14;;;;;;;18.67;12.80;;;;;;;23.50;70.17;99363.38;5072370;28;20038;-30
2022/06/22 00:52:51;;;;;;;15.93;13.07;;;;;;;23.35;69.93;99351.88;5072101;28;20114;-31
2022/06/22 00:55:25;;;;;;;14.23;11.93;;;;;;;23.50;69.84;99358.75;5072528;28;20028;-32
2022/06/22 00:58:02;;;;;;;15.93;11.63;;;;;;;23.34;70.48;99369.31;5090591;28;20122;-31
2022/06/22 01:00:31;;;;;;;15.90;12.00;;;;;;;23.15;70.69;99355.25;5055428;28;20035;-33
2022/06/22 01:03:13;;;;;;;15.27;12.18;;;;;;;22.99;71.37;99363.06;5090532;28;20254;-31
2022/06/22 01:06:13;;;;;;;14.57;11.70;;;;;;;23.03;71.93;99385.81;5090513;28;20028;-28
2022/06/22 01:08:51;;;;;;;17.65;11.48;;;;;;;23.05;71.14;99386.28;5063645;28;20065;-28
2022/06/22 01:14:28;;;;;;;15.75;12.38;;;;;;;22.92;71.39;99357.28;5090507;28;19922;-31
2022/06/22 01:16:57;;;;;;;16.90;12.50;;;;;;;22.97;71.36;99374.25;5072088;28;20059;-34
2022/06/22 01:19:25;;;;;;;15.98;11.93;;;;;;;22.97;71.34;99403.38;5071813;28;20043;-29
2022/06/22 01:22:25;;;;;;;19.85;12.07;;;;;;;22.82;71.59;99408.13;5090105;28;20099;-29
2022/06/22 01:25:03;;;;;;;15.07;11.38;;;;;;;22.91;71.60;99402.72;5052090;28;20111;-28
2022/06/22 01:27:36;;;;;;;15.88;11.15;;;;;;;22.90;70.71;99406.53;5088819;28;20020;-30
2022/06/22 01:30:28;;;;;;;15.57;11.63;;;;;;;22.92;70.88;99400.78;5090002;28;20063;-29
2022/06/22 01:32:55;;;;;;;13.48;11.15;;;;;;;22.93;71.35;99405.91;5090049;28;20466;-31
2022/06/22 01:35:33;;;;;;;17.38;11.52;;;;;;;22.79;71.47;99408.75;5090006;28;20047;-31
2022/06/22 01:38:09;;;;;;;14.32;11.20;;;;;;;22.68;72.10;99407.47;5071448;28;20028;-31
2022/06/22 01:40:49;;;;;;;13.95;11.50;;;;;;;22.65;72.05;99410.78;5071228;28;20414;-33
2022/06/22 01:43:26;;;;;;;16.90;11.88;;;;;;;22.60;72.47;99413.69;5071544;28;20031;-29
2022/06/22 01:46:11;;;;;;;14.30;10.73;;;;;;;22.60;71.43;99397.38;5071162;28;20070;-32
2022/06/22 01:48:46;;;;;;;15.95;11.10;;;;;;;22.67;71.53;99408.56;5089653;28;20084;-29
2022/06/22 01:51:22;;;;;;;13.20;10.32;;;;;;;22.64;72.20;99412.72;5071113;28;20027;-30
2022/06/22 01:53:59;;;;;;;14.18;10.05;;;;;;;22.56;72.18;99399.13;5071525;28;20032;-29
2022/06/22 01:56:44;;;;;;;15.18;10.48;;;;;;;22.56;72.25;99404.56;5070751;28;20032;-30
2022/06/22 01:59:38;;;;;;;16.73;11.13;;;;;;;22.61;71.90;99405.19;5071262;28;20028;-30
2022/06/22 02:02:09;;;;;;;13.32;9.98;;;;;;;;;;5089438;28;20027;-33
2022/06/22 02:04:43;;;;;;;12.43;10.07;;;;;;;22.63;71.09;99388.56;5088871;28;20071;-29
2022/06/22 02:10:27;;;;;;;11.75;9.55;;;;;;;22.68;70.93;99407.47;5089384;28;20047;-29
2022/06/22 02:13:22;;;;;;;13.02;9.20;;;;;;;22.66;70.72;99399.63;5070854;28;20441;-31
2022/06/22 02:16:18;;;;;;;12.10;9.10;;;;;;;22.64;71.00;99395.63;5070468;28;20067;-28
2022/06/22 02:18:51;;;;;;;12.57;9.68;;;;;;;22.57;70.89;99406.13;5088807;28;20055;-29
2022/06/22 02:21:23;;;;;;;12.63;9.40;;;;;;;22.44;70.99;99392.34;5070576;28;20071;-31
2022/06/22 02:24:27;;;;;;;17.52;9.70;;;;;;;22.70;69.77;99405.22;5070652;28;20024;-29
2022/06/22 02:26:58;;;;;;;12.90;8.93;;;;;;;22.69;69.25;99408.25;5084068;28;20050;-32
2022/06/22 02:29:30;;;;;;;14.25;9.18;;;;;;;22.68;69.19;99402.03;5070943;28;20487;-31
2022/06/22 02:32:01;;;;;;;12.52;8.77;;;;;;;22.72;68.58;99404.91;5070698;28;20024;-30
2022/06/22 02:34:28;;;;;;;13.65;9.05;;;;;;;22.73;69.20;99406.50;5088474;28;20024;-30
2022/06/22 02:36:54;;;;;;;14.20;9.10;;;;;;;22.64;68.84;99396.41;5070308;28;20028;-28
2022/06/22 02:39:23;;;;;;;12.93;9.05;;;;;;;22.68;68.83;99412.91;5070178;28;20036;-29
2022/06/22 02:44:39;;;;;;;13.20;9.00;;;;;;;22.81;68.17;99409.25;5088353;28;20047;-29
2022/06/22 02:47:11;;;;;;;12.98;8.45;;;;;;;22.90;67.83;99405.75;5069411;28;20067;-29
2022/06/22 02:49:41;;;;;;;12.75;9.05;;;;;;;22.85;67.63;99404.78;5088138;28;20028;-31
2022/06/22 02:52:10;;;;;;;11.93;9.85;;;;;;;22.91;67.31;99415.50;5088337;28;20027;-30
2022/06/22 02:54:44;;;;;;;12.88;10.02;;;;;;;22.89;67.29;99406.88;5069982;28;20051;-29
2022/06/22 02:57:15;;;;;;;52.50;11.48;;;;;;;22.90;67.69;99408.47;5069954;28;20032;-29
2022/06/22 02:59:42;;;;;;;12.23;8.93;;;;;;;22.89;67.41;99387.84;5088337;28;20491;-30
2022/06/22 03:02:09;;;;;;;16.13;9.00;;;;;;;22.98;66.87;99402.22;5069721;28;20036;-32
2022/06/22 03:04:34;;;;;;;15.48;9.25;;;;;;;22.90;67.40;99397.59;5088190;28;20039;-31
2022/06/22 03:07:01;;;;;;;14.15;9.25;;;;;;;22.90;67.08;99392.94;5087914;28;20024;-32
2022/06/22 03:09:28;;;;;;;12.30;9.48;;;;;;;22.87;67.00;99396.31;5069686;28;20125;-29
2022/06/22 03:11:55;;;;;;;;;;;;;;;23.01;67.08;99404.34;5070209;28;20024;-29
2022/06/22 03:14:31;;;;;;;13.52;9.07;;;;;;;22.90;67.32;99398.38;5088078;28;19908;-33
2022/06/22 03:17:00;;;;;;;13.52;9.20;;;;;;;22.94;66.97;99412.16;5069531;28;20036;-32
2022/06/22 03:19:48;;;;;;;13.75;9.80;;;;;;;22.96;67.12;99418.06;5069667;28;20024;-30
2022/06/22 03:22:30;;;;;;;13.75;9.20;;;;;;;22.98;66.63;99403.03;5069234;28;20032;-31
2022/06/22 03:25:04;;;;;;;12.90;10.20;;;;;;;23.19;66.54;99422.31;5052476;28;20045;-32
2022/06/22 03:27:35;;;;;;;13.18;9.27;;;;;;;22.94;66.18;99390.41;5069281;28;20027;-29
2022/06/22 03:30:06;;;;;;;13.23;9.40;;;;;;;23.00;66.63;99410.88;5069398;28;20507;-32
2022/06/22 03:32:43;;;;;;;14.68;10.02;;;;;;;23.10;66.39;99424.19;5069191;28;20036;-28
2022/06/22 03:35:19;;;;;;;13.18;9.75;;;;;;;23.19;66.64;99421.47;5087782;28;20088;-30
2022/06/22 03:37:53;;;;;;;13.88;9.30;;;;;;;23.25;66.37;99426.47;5069590;28;20209;-30
2022/06/22 03:40:47;;;;;;;15.32;9.27;;;;;;;23.43;65.45;99426.47;5069378;28;20131;-32
2022/06/22 03:43:23;;;;;;;15.20;10.45;;;;;;;23.31;64.73;99399.88;5078011;28;20050;-29
2022/06/22 03:45:59;;;;;;;13.60;10.07;;;;;;;23.42;65.13;99414.00;5068635;28;20130;-31
2022/06/22 03:48:30;;;;;;;14.95;9.75;;;;;;;23.58;64.06;99398.78;5087431;28;20082;-28
2022/06/22 03:51:11;;;;;;;13.27;9.73;;;;;;;23.56;64.92;99395.56;5068596;28;20654;-29
2022/06/22 03:53:41;;;;;;;14.77;9.95;;;;;;;23.67;64.44;99407.72;5087451;28;20035;-30
2022/06/22 03:56:14;;;;;;;13.23;9.82;;;;;;;23.65;64.52;99417.31;5087188;28;20035;-29
2022/06/22 03:58:42;;;;;;;13.50;9.93;;;;;;;23.67;64.37;99399.53;5087380;28;20039;-30
2022/06/22 04:01:10;;;;;;;14.80;10.20;;;;;;;23.68;64.88;99422.13;5068922;28;20097;-30
2022/06/22 04:03:36;;;;;;;14.85;9.95;;;;;;;23.81;64.63;99415.72;5068913;28;20047;-30
2022/06/22 04:06:03;;;;;;;12.38;9.80;;;;;;;23.97;64.56;99429.63;5068827;28;20032;-29
2022/06/22 04:08:40;;;;;;;12.68;9.77;;;;;;;24.09;63.26;99407.19;5086806;28;20020;-29
2022/06/22 04:11:09;;;;;;;15.50;10.20;;;;;;;24.11;63.40;99424.00;5069017;28;20067;-32
2022/06/22 04:13:43;;;;;;;15.07;10.85;;;;;;;24.04;64.07;99429.94;5069162;28;20028;-30
2022/06/22 04:16:13;;;;;;;14.40;10.05;;;;;;;24.08;64.49;99429.28;5068889;28;20591;-29
2022/06/22 04:18:52;;;;;;;12.98;10.43;;;;;;;24.07;64.18;99414.88;5068760;28;20085;-29
2022/06/22 04:21:24;;;;;;;12.07;10.05;;;;;;;23.91;64.88;99413.81;5086982;28;20074;-31
2022/06/22 04:24:13;;;;;;;17.33;10.90;;;;;;;24.13;64.31;99404.59;5069099;28;20032;-32
2022/06/22 04:26:57;;;;;;;14.80;10.15;;;;;;;24.13;64.22;99424.47;5068398;28;20411;-29
2022/06/22 04:29:42;;;;;;;11.30;10.10;;;;;;;24.04;64.19;99389.06;5086928;28;20032;-31
2022/06/22 04:32:21;;;;;;;14.88;10.48;;;;;;;24.25;63.89;99399.25;5068960;28;20024;-29
2022/06/22 04:34:59;;;;;;;13.35;9.57;;;;;;;24.50;63.13;99422.13;5068950;28;20028;-32
2022/06/22 04:37:27;;;;;;;12.52;10.48;;;;;;;24.52;63.52;99432.69;5087106;28;20028;-32
2022/06/22 04:40:01;;;;;;;15.05;10.45;;;;;;;24.62;64.19;99430.41;5086905;28;20040;-35
2022/06/22 04:42:26;;;;;;;12.55;9.40;;;;;;;24.67;62.36;99441.13;5087505;28;20555;-34
2022/06/22 04:44:52;;;;;;;13.23;9.73;;;;;;;24.62;63.63;99438.59;5087141;28;20028;-32
2022/06/22 04:47:25;;;;;;;16.02;10.18;;;;;;;24.75;64.32;99447.66;5086651;28;20181;-31
2022/06/22 04:50:01;;;;;;;11.43;9.50;;;;;;;24.85;63.41;99436.38;5068589;28;20032;-34
2022/06/22 04:52:34;;;;;;;13.80;9.77;;;;;;;24.80;63.06;99428.38;5068295;28;20024;-34
2022/06/22 04:55:03;;;;;;;14.48;10.15;;;;;;;24.94;63.85;99438.25;5068652;28;20117;-29
2022/06/22 04:57:32;;;;;;;17.05;10.13;;;;;;;25.07;62.64;99437.22;5068666;28;20024;-33
2022/06/22 05:00:00;;;;;;;13.43;9.75;;;;;;;24.97;62.75;99429.41;5068523;28;20084;-32
2022/06/22 05:02:28;;;;;;;12.63;9.63;;;;;;;25.09;63.04;99450.50;5071997;28;20036;-29
2022/06/22 05:05:32;;;;;;;14.40;9.75;;;;;;;25.21;62.75;99451.44;5090425;28;20028;-29
2022/06/22 05:08:07;;;;;;;13.25;10.15;;;;;;;25.33;62.08;99455.34;5077954;28;20616;-33
2022/06/22 05:11:06;;;;;;;14.30;10.38;;;;;;;25.39;62.76;99454.81;5090235;28;20406;-31
2022/06/22 05:13:40;;;;;;;13.48;10.60;;;;;;;25.39;62.38;99464.94;5071996;28;20036;-29
2022/06/22 05:16:13;;;;;;;14.32;10.48;;;;;;;25.23;62.84;99451.06;5090441;28;20084;-29
2022/06/22 05:18:41;;;;;;;12.68;10.85;;;;;;;25.28;63.28;99447.38;5054947;28;20032;-31
2022/06/22 05:21:43;;;;;;;14.98;10.52;;;;;;;25.29;63.66;99466.13;5071840;28;20039;-29
2022/06/22 05:24:18;;;;;;;15.45;10.18;;;;;;;25.14;65.36;99463.97;5071891;28;20415;-31
2022/06/22 05:26:45;;;;;;;13.93;10.75;;;;;;;25.04;65.03;99454.22;5090087;28;20027;-29
2022/06/22 05:29:16;;;;;;;14.48;11.07;;;;;;;25.28;64.95;99471.94;5088725;28;20118;-28
2022/06/22 05:31:48;;;;;;;13.63;10.50;;;;;;;25.48;64.96;99479.34;5071755;28;20477;-31
2022/06/22 05:34:18;;;;;;;13.02;10.25;;;;;;;25.70;64.27;99464.50;5071633;28;20503;-29
2022/06/22 05:36:48;;;;;;;15.55;10.65;;;;;;;25.87;62.26;99471.78;5071403;28;20031;-31
2022/06/22 05:39:14;;;;;;;11.30;9.98;;;;;;;26.19;61.44;99486.56;5071469;28;20092;-29
2022/06/22 05:41:45;;;;;;;14.75;10.25;;;;;;;26.20;62.54;99492.84;5089742;28;20500;-29
2022/06/22 05:44:14;;;;;;;15.27;10.35;;;;;;;26.18;61.64;99484.19;5071529;28;20119;-28
2022/06/22 05:46:48;;;;;;;12.55;9.77;;;;;;;26.54;59.75;99482.66;5070581;28;20113;-30
2022/06/22 05:49:16;;;;;;;14.38;9.95;;;;;;;26.61;59.51;99493.88;5071490;28;20101;-31
2022/06/22 05:52:00;;;;;;;11.52;9.43;;;;;;;26.73;58.58;99480.19;5071133;28;20066;-30
2022/06/22 05:54:47;;;;;;;13.25;9.60;;;;;;;26.91;57.74;99458.06;5089211;28;20419;-31
2022/06/22 05:57:22;;;;;;;12.95;9.73;;;;;;;26.86;57.13;99443.47;5070838;28;20526;-29
2022/06/22 06:00:05;;;;;;;12.73;9.65;;;;;;;27.08;56.52;99470.72;5071059;28;20044;-33
2022/06/22 06:03:01;;;;;;;11.75;9.05;;;;;;;27.31;56.19;99469.09;5089185;28;20028;-29
2022/06/22 06:05:40;;;;;;;12.70;10.30;;;;;;;27.38;56.50;99471.25;5088675;28;20028;-29
2022/06/22 06:08:21;;;;;;;12.57;10.20;;;;;;;27.41;56.60;99452.19;5070733;28;20289;-29
2022/06/22 06:10:46;;;;;;;12.02;9.60;;;;;;;27.47;54.66;99482.88;5070365;28;20055;-30
2022/06/22 06:13:42;;;;;;;16.40;10.82;;;;;;;27.36;54.91;99488.03;5088352;28;20060;-29
2022/06/22 06:16:15;;;;;;;17.23;10.88;;;;;;;27.39;56.42;99489.28;5070564;28;20132;-31
2022/06/22 06:18:43;;;;;;;16.90;10.40;;;;;;;27.51;54.17;99470.09;5053533;28;20020;-31
2022/06/22 06:21:14;;;;;;;12.43;10.52;;;;;;;27.53;54.96;99481.50;5070402;28;20047;-32
2022/06/22 06:23:49;;;;;;;15.15;11.63;;;;;;;27.72;55.92;99500.03;5088474;28;20031;-29
2022/06/22 06:29:33;;;;;;;15.95;9.98;;;;;;;28.03;54.49;99466.47;5089133;28;20653;-31
2022/06/22 06:32:04;;;;;;;12.68;10.60;;;;;;;28.20;53.73;99486.50;5088430;28;20028;-38
2022/06/22 06:34:56;;;;;;;13.75;11.02;;;;;;;27.98;54.82;99463.19;5088313;28;20054;-32
2022/06/22 06:37:30;;;;;;;12.85;10.00;;;;;;;27.96;54.73;99482.72;5070275;28;20512;-31
2022/06/22 06:39:57;;;;;;;15.15;10.70;;;;;;;28.10;53.78;99452.16;5070177;28;20055;-29
2022/06/22 06:42:38;;;;;;;13.88;10.27;;;;;;;28.17;53.04;99454.28;5069782;28;20035;-34
2022/06/22 06:45:13;;;;;;;14.32;10.40;;;;;;;28.38;52.19;99465.81;5069775;28;20044;-30
2022/06/22 06:47:41;;;;;;;16.45;10.95;;;;;;;28.01;52.79;99452.34;5087852;28;20051;-30
2022/06/22 06:50:16;;;;;;;13.95;10.55;;;;;;;28.02;53.48;99464.09;5070037;28;20027;-30
2022/06/22 06:53:03;;;;;;;12.30;9.98;;;;;;;27.95;54.07;99467.44;5088066;28;20036;-29
2022/06/22 06:55:42;;;;;;;15.75;10.60;;;;;;;27.98;54.78;99460.44;5088084;28;20055;-29
2022/06/22 06:58:50;;;;;;;14.52;10.40;;;;;;;28.27;52.59;99472.16;5069997;28;20074;-29
2022/06/22 07:01:24;;;;;;;13.27;10.95;;;;;;;28.34;53.40;99464.94;5005305;28;20037;-29
2022/06/22 07:03:58;;;;;;;14.35;10.43;;;;;;;28.71;52.08;99467.44;4988998;28;20122;-32
2022/06/22 07:06:26;;;;;;;38.67;11.23;;;;;;;28.96;51.46;99456.22;5054829;28;20612;-30
2022/06/22 07:08:54;;;;;;;;;;;;;;;29.18;51.47;99469.31;5088457;28;20032;-31
2022/06/22 07:11:31;;;;;;;13.90;11.30;;;;;;;29.16;52.37;99459.84;5087767;28;19912;-29
2022/06/22 07:14:03;;;;;;;12.00;10.30;;;;;;;29.29;50.43;99455.03;5088486;28;20051;-29
2022/06/22 07:16:28;;;;;;;14.23;10.55;;;;;;;29.44;50.63;99456.91;5087493;28;20104;-32
2022/06/22 07:19:16;;;;;;;13.43;11.18;;;;;;;29.43;50.08;99456.09;5087928;28;20062;-31
2022/06/22 07:22:11;;;;;;;16.67;10.40;;;;;;;29.55;49.86;99452.44;5087857;28;20028;-30
2022/06/22 07:24:49;;;;;;;15.48;10.63;;;;;;;29.92;49.88;99468.50;5055151;28;20040;-31
2022/06/22 07:27:23;;;;;;;17.80;12.07;;;;;;;29.90;49.38;99465.31;5087835;28;20028;-29
2022/06/22 07:29:56;;;;;;;12.82;10.40;;;;;;;29.54;48.91;99450.81;5087714;28;20112;-34
2022/06/22 07:32:40;;;;;;;16.10;11.38;;;;;;;29.69;49.86;99451.09;5085840;28;20020;-41
2022/06/22 07:35:12;;;;;;;15.27;10.82;;;;;;;29.69;49.04;99435.44;5087370;28;20479;-29
2022/06/22 07:37:50;;;;;;;13.82;11.48;;;;;;;29.82;49.51;99447.09;5087395;28;20031;-32
2022/06/22 07:40:25;;;;;;;12.60;10.20;;;;;;;29.88;48.55;99450.34;5087607;28;20521;-32
2022/06/22 07:42:54;;;;;;;22.27;11.82;;;;;;;29.95;47.96;99459.50;5087197;28;20077;-33
2022/06/22 07:45:23;;;;;;;14.85;10.75;;;;;;;29.94;48.20;99463.41;5068449;28;20032;-30
2022/06/22 07:48:00;;;;;;;13.07;10.90;;;;;;;30.16;48.22;99461.03;5069274;28;20028;-30
2022/06/22 07:50:33;;;;;;;15.00;11.05;;;;;;;30.24;49.10;99468.28;5087097;28;20032;-29
2022/06/22 07:53:04;;;;;;;15.60;11.85;;;;;;;30.44;47.95;99469.84;5068903;28;20523;-29
2022/06/22 07:55:42;;;;;;;15.90;11.40;;;;;;;30.55;48.50;99466.47;5068864;28;20089;-29
2022/06/22 07:58:15;;;;;;;80.55;18.08;;;;;;;30.42;46.94;99466.66;5087203;28;20035;-30
2022/06/22 08:00:43;;;;;;;17.25;11.50;;;;;;;30.35;46.39;99452.00;5068792;28;20035;-30
2022/06/22 08:03:21;;;;;;;13.60;11.77;;;;;;;30.75;47.40;99479.00;5068774;28;20105;-32
2022/06/22 08:05:50;;;;;;;16.35;13.10;;;;;;;30.66;46.76;99461.94;5068819;28;20024;-30
2022/06/22 08:08:31;;;;;;;14.65;12.50;;;;;;;30.57;46.30;99464.16;5068565;28;20045;-30
2022/06/22 08:11:06;;;;;;;15.07;12.45;;;;;;;30.42;45.54;99463.91;5087334;28;20112;-31
2022/06/22 08:13:49;;;;;;;19.05;13.05;;;;;;;30.55;43.93;99466.47;5068888;28;20040;-31
2022/06/22 08:16:24;;;;;;;16.55;12.07;;;;;;;30.88;43.16;99473.31;5068791;28;20032;-34
2022/06/22 08:18:50;;;;;;;18.75;12.90;;;;;;;31.32;44.09;99470.75;5068642;28;20061;-29
2022/06/22 08:21:18;;;;;;;16.35;12.73;;;;;;;31.39;42.19;99475.59;5086894;28;20036;-31
2022/06/22 08:23:44;;;;;;;15.65;12.30;;;;;;;31.00;42.93;99460.13;5086500;28;20470;-29
2022/06/22 08:26:24;;;;;;;16.50;12.50;;;;;;;31.10;43.45;99464.19;5068844;28;20031;-31
2022/06/22 08:28:51;;;;;;;16.35;12.18;;;;;;;31.48;42.58;99462.34;5068490;28;20028;-33
2022/06/22 08:31:17;;;;;;;16.73;12.38;;;;;;;31.74;40.62;99472.50;5086753;28;20169;-31
2022/06/22 08:33:54;;;;;;;17.73;13.13;;;;;;;31.87;40.63;99477.75;5086935;28;20055;-32
2022/06/22 08:36:24;;;;;;;17.05;12.65;;;;;;;31.82;42.42;99476.91;5070696;28;20044;-29
2022/06/22 08:39:22;;;;;;;14.32;12.88;;;;;;;31.75;41.49;99471.34;5090834;28;20522;-29
2022/06/22 08:42:01;;;;;;;15.35;11.98;;;;;;;31.76;41.21;99472.13;5084576;28;20040;-30
2022/06/22 08:45:06;;;;;;;14.60;12.25;;;;;;;32.45;40.63;99468.91;5071063;28;20062;-31
2022/06/22 08:47:37;;;;;;;16.17;12.50;;;;;;;32.11;40.67;99473.72;5090622;28;20052;-32
2022/06/22 08:50:33;;;;;;;12.35;11.05;;;;;;;31.55;40.88;99469.94;5090501;28;20052;-30
2022/06/22 08:53:14;;;;;;;15.43;11.80;;;;;;;31.33;41.53;99474.34;5090629;28;20031;-29
2022/06/22 08:56:11;;;;;;;12.02;10.70;;;;;;;31.74;41.44;99457.94;5072305;28;20030;-33
2022/06/22 08:59:02;;;;;;;16.95;11.23;;;;;;;32.17;40.43;99472.97;5037654;28;20040;-29
2022/06/22 09:01:47;;;;;;;46.08;13.25;;;;;;;32.16;40.04;99467.84;5072298;28;20028;-31
2022/06/22 09:04:57;;;;;;;15.48;11.05;;;;;;;32.57;40.22;99456.78;5072260;28;20392;-32
2022/06/22 09:07:40;;;;;;;15.68;12.18;;;;;;;33.15;39.94;99449.72;5090137;28;20031;-31
2022/06/22 09:10:37;;;;;;;12.98;10.70;;;;;;;32.51;39.07;99450.81;5090749;28;20040;-33
2022/06/22 09:14:04;;;;;;;12.93;11.25;;;;;;;32.09;40.17;99445.72;5090035;28;20082;-32
2022/06/22 09:17:00;;;;;;;13.68;11.07;;;;;;;31.82;39.88;99449.34;5061544;28;20032;-29
2022/06/22 09:19:31;;;;;;;16.15;11.02;;;;;;;31.75;40.56;99448.47;5075604;28;20050;-30
2022/06/22 09:22:16;;;;;;;13.80;10.90;;;;;;;31.59;40.36;99452.25;5090615;28;20037;-30
2022/06/22 09:25:05;;;;;;;15.52;11.30;;;;;;;31.28;41.53;99444.34;5071812;28;20153;-30
2022/06/22 09:28:03;;;;;;;14.95;12.05;;;;;;;31.41;41.42;99435.47;5071395;28;20088;-30
2022/06/22 09:30:49;;;;;;;14.30;10.93;;;;;;;31.41;41.56;99426.41;5070355;28;20032;-36
2022/06/22 09:33:17;;;;;;;15.67;11.47;;;;;;;31.11;42.70;99421.69;5071737;28;20054;-30
2022/06/22 09:36:16;;;;;;;15.55;10.95;;;;;;;31.59;41.82;99430.22;5071284;28;20027;-30
2022/06/22 09:38:51;;;;;;;15.77;11.68;;;;;;;31.24;41.24;99436.84;5071438;28;20042;-34
2022/06/22 09:41:32;;;;;;;15.23;11.40;;;;;;;31.55;41.95;99437.63;5071783;28;20039;-29
2022/06/22 09:44:09;;;;;;;15.27;11.95;;;;;;;31.60;41.62;99436.50;5071295;28;20043;-33
2022/06/22 09:46:53;;;;;;;12.05;10.63;;;;;;;31.92;40.54;99430.56;5070803;28;20052;-32
2022/06/22 09:49:25;;;;;;;13.68;11.35;;;;;;;32.35;40.73;99409.69;5070906;28;20032;-33
2022/06/22 09:52:05;;;;;;;15.80;11.45;;;;;;;32.71;38.48;99409.16;5089652;28;20530;-29
2022/06/22 09:58:05;;;;;;;17.40;12.02;;;;;;;33.11;37.71;99421.28;5089688;28;20035;-29
2022/06/22 10:00:45;;;;;;;16.10;11.68;;;;;;;32.94;36.79;99414.47;5089321;28;20086;-30
2022/06/22 10:03:14;;;;;;;18.65;12.23;;;;;;;33.07;37.52;99421.22;5071232;28;20033;-33
2022/06/22 10:05:51;;;;;;;17.02;12.23;;;;;;;33.26;37.20;99408.31;5089459;28;20067;-31
2022/06/22 10:08:26;;;;;;;14.82;13.00;;;;;;;33.08;37.50;99416.47;5089367;28;20030;-31
2022/06/22 10:11:17;;;;;;;16.88;11.07;;;;;;;32.96;37.50;99406.56;5089190;28;20487;-30
2022/06/22 10:14:13;;;;;;;15.15;10.73;;;;;;;33.02;36.84;99407.78;5056006;28;20187;-31
2022/06/22 10:17:14;;;;;;;12.85;10.40;;;;;;;33.61;36.39;99400.19;5088993;28;20032;-29
2022/06/22 10:19:51;;;;;;;14.55;9.85;;;;;;;33.77;36.42;99401.78;5044921;28;20127;-31
2022/06/22 10:22:49;;;;;;;12.55;9.75;;;;;;;34.07;36.29;99417.25;5070825;28;20637;-32
2022/06/22 10:25:33;;;;;;;14.43;9.65;;;;;;;33.65;35.44;99394.63;5062350;28;20488;-33
2022/06/22 10:28:22;;;;;;;12.23;10.13;;;;;;;32.84;36.34;99407.69;5088517;28;20480;-35
2022/06/22 10:30:56;;;;;;;15.27;9.60;;;;;;;33.25;36.89;99415.03;5070662;28;20166;-31
2022/06/22 10:33:33;;;;;;;17.35;10.05;;;;;;;33.03;36.50;99412.13;5088511;28;20729;-30
2022/06/22 10:36:35;;;;;;;14.50;10.13;;;;;;;32.92;36.25;99400.25;5088814;28;20028;-33
2022/06/22 10:39:16;;;;;;;14.20;9.52;;;;;;;33.07;36.84;99412.16;5070452;28;20499;-29
2022/06/22 10:45:27;;;;;;;12.25;9.82;;;;;;;32.79;38.51;99386.72;5088726;28;20724;-30
2022/06/22 10:48:23;;;;;;;17.45;10.60;;;;;;;32.25;38.89;99393.84;5041299;28;20047;-30
2022/06/22 10:51:07;;;;;;;17.02;10.75;;;;;;;32.06;39.07;99394.06;5088189;28;20028;-31
2022/06/22 10:54:00;;;;;;;13.30;10.05;;;;;;;31.88;39.73;99402.16;5088779;28;20105;-30
2022/06/22 10:56:45;;;;;;;16.10;10.80;;;;;;;31.90;39.83;99395.09;5069673;28;20040;-32
2022/06/22 10:59:11;;;;;;;13.85;10.50;;;;;;;31.66;40.19;99401.94;5087948;28;20053;-37
2022/06/22 11:01:54;;;;;;;14.88;10.45;;;;;;;31.53;41.03;99404.16;5069875;28;20039;-31
2022/06/22 11:04:51;;;;;;;13.98;10.43;;;;;;;31.24;41.08;99392.78;5069809;28;20032;-33
2022/06/22 11:07:38;;;;;;;13.93;9.77;;;;;;;30.97;42.30;99400.28;5087834;28;20024;-30
2022/06/22 11:10:13;;;;;;;14.60;10.95;;;;;;;30.75;43.00;99382.66;5069737;28;20036;-29
2022/06/22 11:12:56;;;;;;;13.27;10.52;;;;;;;30.76;43.80;99389.72;5069484;28;20036;-30
2022/06/22 11:15:38;;;;;;;14.00;11.10;;;;;;;30.44;47.31;99397.50;5069534;28;20024;-30
2022/06/22 11:18:21;;;;;;;16.15;11.82;;;;;;;30.29;48.99;99409.44;5069224;28;20523;-30
2022/06/22 11:21:16;;;;;;;17.60;12.23;;;;;;;30.07;50.90;99419.25;5087904;28;20024;-30
2022/06/22 11:24:15;;;;;;;15.15;11.52;;;;;;;29.85;50.97;99421.63;5069456;28;20036;-29
2022/06/22 11:33:20;;;;;;;18.45;12.50;;;;;;;29.61;52.91;99390.53;5087533;28;20085;-32
2022/06/22 11:35:55;;;;;;;17.35;12.88;;;;;;;29.75;54.14;99392.78;5069504;28;20056;-32
2022/06/22 11:38:31;;;;;;;18.77;12.35;;;;;;;29.69;52.29;99390.66;5069180;28;20036;-41
2022/06/22 11:41:14;;;;;;;18.10;13.02;;;;;;;29.59;51.00;99392.84;5087397;28;20032;-31
2022/06/22 11:44:17;;;;;;;19.50;13.50;;;;;;;29.94;51.12;99380.94;5069345;28;20061;-29
2022/06/22 11:46:50;;;;;;;15.00;12.43;;;;;;;30.96;48.55;99381.38;5087313;28;20737;-30
2022/06/22 11:49:47;;;;;;;14.70;12.00;;;;;;;31.89;46.26;99387.97;5068975;28;20760;-33
2022/06/22 11:52:38;;;;;;;17.67;11.80;;;;;;;31.94;43.96;99389.59;5087466;28;20036;-29
2022/06/22 11:55:23;;;;;;;15.65;11.60;;;;;;;32.60;43.85;99387.81;5069121;28;20137;-30
2022/06/22 11:58:14;;;;;;;17.13;11.18;;;;;;;33.05;41.68;99384.13;5069088;28;20092;-31
2022/06/22 12:01:05;;;;;;;16.33;10.45;;;;;;;32.81;41.27;99389.13;5068759;28;20440;-29
2022/06/22 12:03:53;;;;;;;15.93;10.65;;;;;;;33.13;39.72;99397.59;5068892;28;20063;-31
2022/06/22 12:06:46;;;;;;;13.55;9.55;;;;;;;32.01;40.87;99396.00;5087535;28;20063;-31
2022/06/22 12:09:46;;;;;;;14.90;10.85;;;;;;;32.36;41.34;99386.44;5086971;28;20035;-32
2022/06/22 12:12:29;;;;;;;15.35;10.23;;;;;;;32.54;41.08;99399.56;5086597;28;20074;-31
2022/06/22 12:15:26;;;;;;;15.95;10.93;;;;;;;32.57;40.51;99382.25;5069050;28;20423;-35
2022/06/22 12:18:05;;;;;;;16.17;9.52;;;;;;;32.63;39.07;99359.44;5087190;28;20480;-29
2022/06/22 12:20:38;;;;;;;16.98;8.98;;;;;;;33.17;39.53;99375.53;5068221;28;20526;-35
2022/06/22 12:23:24;;;;;;;14.40;9.43;;;;;;;33.89;39.01;99376.50;5087176;28;20384;-30
2022/06/22 12:26:21;;;;;;;15.93;8.90;;;;;;;33.21;37.66;99379.09;5068666;28;20032;-31
2022/06/22 12:28:52;;;;;;;;;;;;;;;33.16;39.47;99365.63;5087254;28;20032;-30
2022/06/22 12:31:21;;;;;;;12.18;10.20;;;;;;;33.48;39.81;99362.19;5087323;28;19916;-32
2022/06/22 12:33:56;;;;;;;15.27;10.02;;;;;;;33.79;38.58;99371.75;5068845;28;20036;-34
2022/06/22 12:36:34;;;;;;;13.63;9.93;;;;;;;34.06;38.46;99374.16;5068812;28;20020;-30
2022/06/22 12:39:12;;;;;;;39.22;13.23;;;;;;;34.02;39.29;99365.84;5068445;28;20032;-32